Time;durP1;ratioP1;P1;durP2;ratioP2;P2;SDS_P1;SDS_P2;PMS_P1;PMS_P2;Temp;Humidity;BMP_temperature;BMP_pressure;BME280_temperature;BME280_humidity;BME280_pressure;Samples;Min_cycle;Max_cycle;Signal;HPM_P1;HPM_P2
2022/11/09 00:02:00;;;;;;;0.40;0.40;;;;;;;11.32;92.19;99153.56;4988137;28;20070;-76
2022/11/09 00:04:26;;;;;;;0.40;0.40;;;;;;;11.28;92.01;99152.81;4988327;28;20030;-76
2022/11/09 00:06:51;;;;;;;0.38;0.38;;;;;;;11.28;92.25;99148.47;4988279;28;20026;-77
2022/11/09 00:09:17;;;;;;;1.95;1.85;;;;;;;11.28;92.25;99158.88;4988078;28;20023;-77
2022/11/09 00:11:42;;;;;;;0.50;0.50;;;;;;;11.28;92.46;99156.25;4988116;28;20038;-77
2022/11/09 00:14:13;;;;;;;0.63;0.63;;;;;;;11.32;92.63;99157.03;4988258;28;20034;-78
2022/11/09 00:16:39;;;;;;;0.50;0.50;;;;;;;11.29;92.79;99154.53;4988298;28;20083;-78
2022/11/09 00:19:04;;;;;;;0.60;0.60;;;;;;;11.29;93.07;99151.94;4987886;28;20030;-77
2022/11/09 00:21:29;;;;;;;0.40;0.40;;;;;;;11.30;93.30;99148.41;4987934;28;20039;-77
2022/11/09 00:23:55;;;;;;;0.40;0.40;;;;;;;11.27;93.45;99139.00;4987769;28;20023;-76
2022/11/09 00:26:21;;;;;;;0.40;0.40;;;;;;;11.31;93.62;99150.13;4988019;28;20027;-78
2022/11/09 00:28:47;;;;;;;0.57;0.57;;;;;;;11.28;93.45;99139.81;4987651;28;20031;-76
2022/11/09 00:31:16;;;;;;;0.40;0.40;;;;;;;11.27;93.31;99143.31;4987774;28;20027;-77
2022/11/09 00:33:41;;;;;;;1.02;1.02;;;;;;;11.25;93.76;99134.72;4987705;28;20161;-76
2022/11/09 00:36:10;;;;;;;0.40;0.40;;;;;;;11.29;93.69;99136.34;4987644;28;20031;-76
2022/11/09 00:38:39;;;;;;;0.77;0.77;;;;;;;11.30;93.67;99131.97;4987361;28;20027;-76
2022/11/09 00:41:05;;;;;;;1.05;1.05;;;;;;;11.26;93.88;99128.66;4987904;28;20083;-75
2022/11/09 00:43:31;;;;;;;0.55;0.55;;;;;;;11.28;93.63;99129.44;4987365;28;20033;-78
2022/11/09 00:45:57;;;;;;;0.50;0.50;;;;;;;11.31;93.50;99128.50;4987487;28;20086;-78
2022/11/09 00:48:22;;;;;;;3.80;3.50;;;;;;;11.33;93.83;99137.94;4987487;28;20023;-77
2022/11/09 00:50:52;;;;;;;0.40;0.40;;;;;;;11.29;94.00;99115.56;4987282;28;20027;-78
2022/11/09 00:53:19;;;;;;;0.40;0.40;;;;;;;11.30;93.88;99121.59;4987549;28;20026;-76
2022/11/09 00:56:05;;;;;;;0.40;0.40;;;;;;;11.26;93.13;99126.03;4987263;28;20158;-77
2022/11/09 00:58:32;;;;;;;0.50;0.50;;;;;;;11.24;93.37;99123.50;4987238;28;20049;-79
2022/11/09 01:00:59;;;;;;;0.45;0.45;;;;;;;11.24;93.04;99125.25;4987181;28;20028;-77
2022/11/09 01:03:26;;;;;;;0.50;0.50;;;;;;;11.20;93.61;99115.84;4987270;28;20030;-76
2022/11/09 01:05:52;;;;;;;0.40;0.40;;;;;;;11.18;93.75;99120.25;4987320;28;20025;-78
2022/11/09 01:08:18;;;;;;;0.40;0.40;;;;;;;11.08;93.86;99091.09;4987051;28;20034;-77
2022/11/09 01:10:45;;;;;;;0.40;0.40;;;;;;;11.17;93.46;99108.16;4986953;28;20027;-77
2022/11/09 01:13:13;;;;;;;1.23;1.20;;;;;;;11.12;93.67;99113.47;4986523;28;20030;-77
2022/11/09 01:15:46;;;;;;;0.40;0.40;;;;;;;11.12;93.80;99110.88;4986979;28;20031;-78
2022/11/09 01:18:12;;;;;;;0.47;0.47;;;;;;;11.10;94.05;99104.91;4986737;28;20054;-76
2022/11/09 01:20:43;;;;;;;0.40;0.40;;;;;;;11.13;93.71;99105.63;4986585;28;20046;-77
2022/11/09 01:23:10;;;;;;;0.40;0.40;;;;;;;11.12;93.80;99108.28;4986563;28;20035;-76
2022/11/09 01:25:35;;;;;;;0.40;0.40;;;;;;;11.11;93.73;99091.00;4986334;28;20026;-76
2022/11/09 01:28:01;;;;;;;0.40;0.40;;;;;;;11.08;94.10;99096.31;4986853;28;20089;-77
2022/11/09 01:30:26;;;;;;;2.90;1.08;;;;;;;11.08;94.27;99096.31;4986516;28;20442;-79
2022/11/09 01:32:52;;;;;;;0.70;0.70;;;;;;;11.09;93.80;99096.25;4986433;28;20027;-78
2022/11/09 01:35:17;;;;;;;0.85;0.85;;;;;;;11.06;94.13;99088.56;4986310;28;20026;-77
2022/11/09 01:37:43;;;;;;;0.40;0.40;;;;;;;11.09;94.29;99087.59;4986183;28;20355;-76
2022/11/09 01:40:09;;;;;;;0.40;0.40;;;;;;;11.11;94.44;99086.66;4986258;28;20046;-78
2022/11/09 01:42:36;;;;;;;0.40;0.40;;;;;;;11.17;94.32;99089.97;4986181;28;20025;-78
2022/11/09 01:45:17;;;;;;;0.40;0.40;;;;;;;11.19;94.46;99096.81;4986031;28;20041;-77
2022/11/09 01:47:46;;;;;;;2.95;0.95;;;;;;;11.23;94.28;99084.59;4986098;28;20030;-77
2022/11/09 01:50:14;;;;;;;0.40;0.40;;;;;;;11.28;94.36;99093.06;4985895;28;20031;-76
2022/11/09 01:52:43;;;;;;;2.50;2.30;;;;;;;11.26;94.46;99087.06;4986192;28;20022;-77
2022/11/09 01:55:12;;;;;;;0.40;0.40;;;;;;;11.32;94.56;99086.00;4985954;28;20030;-77
2022/11/09 01:57:58;;;;;;;0.40;0.40;;;;;;;11.37;94.75;99078.94;4986259;28;20018;-76
2022/11/09 02:00:23;;;;;;;0.40;0.40;;;;;;;11.35;94.32;99076.38;4986256;28;20383;-77
2022/11/09 02:02:57;;;;;;;0.40;0.40;;;;;;;11.45;94.21;99073.47;4986045;28;20027;-76
2022/11/09 02:05:26;;;;;;;0.50;0.50;;;;;;;11.43;94.16;99075.25;4986224;28;20030;-77
2022/11/09 02:07:54;;;;;;;0.40;0.40;;;;;;;11.48;93.87;99069.03;4968744;28;20101;-76
2022/11/09 02:10:30;;;;;;;0.40;0.40;;;;;;;11.46;94.03;99059.56;4985969;28;20027;-76
2022/11/09 02:12:57;;;;;;;0.40;0.40;;;;;;;11.48;93.16;99053.44;4986459;28;20026;-77
2022/11/09 02:15:23;;;;;;;0.55;0.55;;;;;;;11.56;91.55;99050.56;4986414;28;20019;-78
2022/11/09 02:17:52;;;;;;;0.40;0.40;;;;;;;11.44;92.22;99057.03;4986248;28;20055;-77
2022/11/09 02:20:18;;;;;;;0.40;0.40;;;;;;;11.31;93.14;99055.75;4985822;28;20053;-74
2022/11/09 02:22:44;;;;;;;0.40;0.40;;;;;;;11.25;93.18;99038.59;4985908;28;20046;-76
2022/11/09 02:25:11;;;;;;;0.70;0.70;;;;;;;11.25;92.94;99049.84;4988821;28;20058;-75
2022/11/09 02:27:38;;;;;;;0.50;0.50;;;;;;;11.27;92.97;99044.59;4989918;28;20023;-76
2022/11/09 02:30:05;;;;;;;0.70;0.63;;;;;;;11.28;93.22;99041.94;4989717;28;20101;-77
2022/11/09 02:32:30;;;;;;;0.50;0.50;;;;;;;11.33;93.40;99053.94;4989684;28;20058;-77
2022/11/09 02:34:56;;;;;;;0.40;0.40;;;;;;;11.30;93.30;99049.69;4988106;28;20023;-77
2022/11/09 02:37:33;;;;;;;0.40;0.40;;;;;;;11.33;93.16;99047.00;4989328;28;20063;-77
2022/11/09 02:40:01;;;;;;;0.40;0.40;;;;;;;11.33;92.99;99044.41;4989790;28;20027;-76
2022/11/09 02:42:27;;;;;;;0.40;0.40;;;;;;;11.37;92.57;99052.94;4989369;28;20130;-77
2022/11/09 02:44:57;;;;;;;0.40;0.40;;;;;;;11.38;93.06;99047.69;4989472;28;20027;-77
2022/11/09 02:47:23;;;;;;;0.40;0.40;;;;;;;11.36;92.81;99051.22;4989540;28;20027;-78
2022/11/09 02:49:49;;;;;;;0.40;0.40;;;;;;;11.39;93.00;99053.72;4989431;28;20086;-77
2022/11/09 02:52:14;;;;;;;0.52;0.52;;;;;;;11.44;92.89;99051.00;4987979;28;20148;-77
2022/11/09 02:54:40;;;;;;;0.60;0.60;;;;;;;11.48;92.87;99042.19;4989552;28;20086;-77
2022/11/09 02:57:05;;;;;;;0.30;0.30;;;;;;;11.56;92.16;99055.78;4989201;28;20113;-77
2022/11/09 02:59:30;;;;;;;0.35;0.35;;;;;;;11.42;92.53;99035.44;4989468;28;20026;-76
2022/11/09 03:01:56;;;;;;;0.40;0.40;;;;;;;11.48;92.13;99047.38;4971948;28;20031;-76
2022/11/09 03:04:21;;;;;;;0.40;0.40;;;;;;;11.51;91.97;99053.34;4989158;28;20514;-76
2022/11/09 03:06:46;;;;;;;0.63;0.63;;;;;;;11.51;92.13;99053.34;4989291;28;20053;-73
2022/11/09 03:09:12;;;;;;;0.40;0.40;;;;;;;11.57;91.57;99054.00;4989007;28;20026;-75
2022/11/09 03:11:39;;;;;;;0.40;0.40;;;;;;;11.58;90.90;99060.91;4989285;28;20056;-76
2022/11/09 03:14:04;;;;;;;0.40;0.40;;;;;;;11.61;90.94;99038.25;4989007;28;20033;-76
2022/11/09 03:16:30;;;;;;;0.60;0.60;;;;;;;11.60;91.12;99036.56;4988879;28;20030;-76
2022/11/09 03:18:56;;;;;;;0.40;0.40;;;;;;;11.61;90.93;99030.44;4988834;28;20048;-76
2022/11/09 03:21:22;;;;;;;0.40;0.40;;;;;;;11.61;90.22;99030.44;4989047;28;20524;-77
2022/11/09 03:23:48;;;;;;;0.40;0.40;;;;;;;11.64;90.67;99034.69;4988524;28;20471;-75
2022/11/09 03:26:14;;;;;;;0.40;0.40;;;;;;;11.63;90.97;99033.00;4989096;28;20042;-75
2022/11/09 03:28:39;;;;;;;1.50;1.50;;;;;;;11.68;90.74;99030.25;4988686;28;20023;-75
2022/11/09 03:31:05;;;;;;;0.88;0.88;;;;;;;11.69;90.69;99031.94;4971297;28;20037;-76
2022/11/09 03:33:30;;;;;;;0.50;0.50;;;;;;;11.69;90.60;99034.53;4988722;28;20041;-75
2022/11/09 03:35:56;;;;;;;0.93;0.93;;;;;;;11.70;90.39;99031.88;4970785;28;20037;-76
2022/11/09 03:38:21;;;;;;;0.40;0.40;;;;;;;11.70;89.91;99025.81;4988482;28;20037;-77
2022/11/09 03:40:46;;;;;;;0.40;0.40;;;;;;;11.74;90.40;99030.03;4988726;28;20018;-76
2022/11/09 03:43:12;;;;;;;0.40;0.40;;;;;;;11.81;89.88;99034.09;4988701;28;20022;-77
2022/11/09 03:45:37;;;;;;;0.40;0.40;;;;;;;11.79;90.36;99033.28;4988246;28;20498;-76
2022/11/09 03:48:03;;;;;;;0.73;0.73;;;;;;;11.83;89.20;99031.44;4988605;28;20022;-75
2022/11/09 03:50:30;;;;;;;0.30;0.30;;;;;;;11.80;89.16;99031.56;4988378;28;20069;-76
2022/11/09 03:52:57;;;;;;;0.40;0.40;;;;;;;11.80;88.55;99032.41;4988373;28;20114;-77
2022/11/09 03:55:22;;;;;;;0.52;0.52;;;;;;;11.77;88.57;99027.31;4988028;28;20090;-74
2022/11/09 03:57:48;;;;;;;0.40;0.40;;;;;;;11.86;88.65;99031.34;4988412;28;20054;-75
2022/11/09 04:00:16;;;;;;;5.88;4.35;;;;;;;11.83;88.87;99032.31;4988285;28;20034;-76
2022/11/09 04:02:42;;;;;;;0.35;0.35;;;;;;;11.80;88.53;99010.75;4988301;28;20074;-77
2022/11/09 04:05:08;;;;;;;0.40;0.40;;;;;;;11.80;88.83;99026.34;4988015;28;20034;-77
2022/11/09 04:07:34;;;;;;;1.05;1.05;;;;;;;11.77;88.92;99009.94;4988224;28;20026;-76
2022/11/09 04:09:59;;;;;;;0.75;0.75;;;;;;;11.75;88.14;99024.78;4988136;28;20037;-77
2022/11/09 04:12:25;;;;;;;0.30;0.30;;;;;;;11.75;88.10;99035.19;4988160;28;20033;-77
2022/11/09 04:14:50;;;;;;;0.40;0.40;;;;;;;11.74;87.77;99017.88;4988237;28;20018;-77
2022/11/09 04:17:15;;;;;;;0.30;0.30;;;;;;;11.70;87.73;99021.50;4987907;28;20084;-76
2022/11/09 04:19:41;;;;;;;0.95;0.95;;;;;;;11.70;88.01;99026.69;4987719;28;20070;-76
2022/11/09 04:22:06;;;;;;;0.90;0.90;;;;;;;11.71;88.04;99019.75;4987893;28;20026;-75
2022/11/09 04:24:31;;;;;;;11.38;3.63;;;;;;;11.69;88.11;99021.53;4987920;28;20575;-76
2022/11/09 04:26:57;;;;;;;0.40;0.40;;;;;;;11.60;88.32;99017.50;4987871;28;20023;-76
2022/11/09 04:29:22;;;;;;;0.40;0.40;;;;;;;11.62;88.00;99028.69;4987665;28;20034;-76
2022/11/09 04:31:48;;;;;;;0.50;0.50;;;;;;;11.60;88.67;99017.50;4986060;28;20121;-76
2022/11/09 04:34:14;;;;;;;0.40;0.40;;;;;;;11.58;88.21;99020.16;4987864;28;20031;-76
2022/11/09 04:36:40;;;;;;;1.00;0.98;;;;;;;11.59;88.64;99028.81;4987559;28;20041;-76
2022/11/09 04:39:05;;;;;;;0.40;0.40;;;;;;;11.56;88.34;99034.97;4987495;28;20481;-74
2022/11/09 04:41:30;;;;;;;0.80;0.80;;;;;;;11.57;88.15;99031.47;4970226;28;20033;-75
2022/11/09 04:43:56;;;;;;;0.93;0.93;;;;;;;11.58;88.24;99037.53;4987320;28;20019;-77
2022/11/09 04:46:21;;;;;;;0.40;0.40;;;;;;;11.57;88.08;99022.81;4986474;28;20037;-74
2022/11/09 04:48:46;;;;;;;1.70;1.42;;;;;;;11.56;88.09;99031.50;4969747;28;20027;-75
2022/11/09 04:51:12;;;;;;;0.47;0.47;;;;;;;11.66;87.81;99030.31;4987390;28;20023;-75
2022/11/09 04:53:38;;;;;;;0.40;0.40;;;;;;;11.59;87.89;99034.88;4987410;28;20029;-76
2022/11/09 04:56:04;;;;;;;0.45;0.45;;;;;;;11.56;88.33;99044.50;4987190;28;20077;-76
2022/11/09 04:58:30;;;;;;;0.40;0.40;;;;;;;11.57;88.07;99047.06;4987152;28;20097;-76
2022/11/09 05:01:02;;;;;;;0.40;0.40;;;;;;;11.52;88.30;99059.34;4987197;28;20475;-72
2022/11/09 05:03:28;;;;;;;0.35;0.35;;;;;;;11.52;88.60;99043.75;4986984;28;20049;-76
2022/11/09 05:05:53;;;;;;;0.82;0.82;;;;;;;11.50;88.15;99040.38;4986980;28;20054;-74
2022/11/09 05:08:18;;;;;;;1.05;1.05;;;;;;;11.51;88.48;99048.13;4987089;28;20094;-76
2022/11/09 05:10:44;;;;;;;0.40;0.40;;;;;;;11.50;88.52;99053.38;4985406;28;20050;-75
2022/11/09 05:13:11;;;;;;;0.40;0.40;;;;;;;11.49;88.68;99059.47;4986750;28;20054;-76
2022/11/09 05:15:37;;;;;;;0.40;0.40;;;;;;;11.55;88.96;99053.22;4985723;28;20031;-75
2022/11/09 05:18:03;;;;;;;0.40;0.40;;;;;;;11.51;88.99;99052.47;4986757;28;20471;-75
2022/11/09 05:20:29;;;;;;;0.40;0.40;;;;;;;11.48;88.68;99066.44;4986575;28;20043;-75
2022/11/09 05:25:40;;;;;;;0.40;0.40;;;;;;;11.49;88.37;99060.31;4986659;28;20054;-73
2022/11/09 05:28:06;;;;;;;0.50;0.50;;;;;;;11.52;88.44;99068.00;4986430;28;20031;-76
2022/11/09 05:30:31;;;;;;;0.40;0.40;;;;;;;11.59;88.68;99054.81;4986783;28;20034;-76
2022/11/09 05:32:57;;;;;;;0.40;0.40;;;;;;;11.56;88.39;99060.09;4986345;28;20022;-75
2022/11/09 05:35:22;;;;;;;0.40;0.40;;;;;;;11.55;88.53;99064.44;4986243;28;20023;-76
2022/11/09 05:37:48;;;;;;;0.40;0.40;;;;;;;11.48;88.66;99070.75;4985123;28;20058;-76
2022/11/09 05:40:16;;;;;;;2.35;2.25;;;;;;;11.53;88.59;99076.66;4986378;28;20027;-75
2022/11/09 05:42:41;;;;;;;0.40;0.40;;;;;;;11.54;88.32;99073.16;4986399;28;20463;-74
2022/11/09 05:45:09;;;;;;;0.40;0.40;;;;;;;11.50;88.83;99062.00;4986662;28;20035;-76
2022/11/09 05:47:39;;;;;;;0.40;0.40;;;;;;;11.52;88.70;99069.75;4986439;28;20022;-74
2022/11/09 05:50:06;;;;;;;2.55;1.67;;;;;;;11.50;89.09;99074.19;4986351;28;20058;-74
2022/11/09 05:52:31;;;;;;;1.98;1.50;;;;;;;11.46;88.63;99088.16;4986332;28;20401;-77
2022/11/09 05:54:57;;;;;;;0.40;0.40;;;;;;;11.42;88.97;99082.22;4986158;28;20019;-75
2022/11/09 05:57:22;;;;;;;0.30;0.30;;;;;;;11.44;88.79;99090.81;4986245;28;20054;-76
2022/11/09 05:59:47;;;;;;;0.98;0.98;;;;;;;11.43;89.06;99085.66;4986467;28;20077;-75
2022/11/09 06:02:13;;;;;;;0.40;0.40;;;;;;;11.40;88.83;99077.09;4986464;28;20081;-76
2022/11/09 06:04:38;;;;;;;0.40;0.40;;;;;;;11.40;89.29;99079.69;4986508;28;20022;-75
2022/11/09 06:07:03;;;;;;;0.50;0.50;;;;;;;11.36;89.18;99085.88;4986433;28;20516;-76
2022/11/09 06:09:29;;;;;;;0.50;0.50;;;;;;;11.33;89.18;99085.09;4986206;28;20023;-75
2022/11/09 06:11:54;;;;;;;0.40;0.40;;;;;;;11.28;89.55;99088.72;4986038;28;20043;-76
2022/11/09 06:14:19;;;;;;;0.82;0.82;;;;;;;11.26;89.97;99084.47;4986569;28;20123;-76
2022/11/09 06:16:45;;;;;;;0.95;0.95;;;;;;;11.30;89.86;99080.88;4986357;28;20030;-74
2022/11/09 06:19:10;;;;;;;0.50;0.50;;;;;;;11.23;89.91;99089.78;4986230;28;20031;-76
2022/11/09 06:21:35;;;;;;;0.40;0.40;;;;;;;11.19;89.71;99094.22;4986002;28;20047;-77
2022/11/09 06:24:01;;;;;;;0.40;0.40;;;;;;;11.19;90.07;99088.16;4986026;28;20027;-73
2022/11/09 06:26:26;;;;;;;1.13;1.13;;;;;;;11.13;90.02;99089.22;4986199;28;20034;-77
2022/11/09 06:28:51;;;;;;;0.40;0.40;;;;;;;11.14;90.39;99093.50;4985995;28;20026;-75
2022/11/09 06:31:19;;;;;;;0.40;0.40;;;;;;;11.13;90.83;99090.03;4986186;28;20105;-77
2022/11/09 06:33:44;;;;;;;0.52;0.52;;;;;;;11.13;90.66;99095.25;4986102;28;20022;-78
2022/11/09 06:36:10;;;;;;;0.40;0.40;;;;;;;11.18;90.95;99091.66;4984592;28;20033;-76
2022/11/09 06:38:36;;;;;;;0.40;0.40;;;;;;;11.22;91.05;99096.72;4985607;28;20023;-78
2022/11/09 06:41:01;;;;;;;0.50;0.50;;;;;;;11.24;91.00;99094.06;4985742;28;20463;-76
2022/11/09 06:43:27;;;;;;;15.88;1.52;;;;;;;11.25;91.04;99087.97;4985980;28;20029;-75
2022/11/09 06:45:53;;;;;;;0.50;0.50;;;;;;;11.31;90.98;99097.31;4985953;28;20027;-76
2022/11/09 06:48:18;;;;;;;0.65;0.65;;;;;;;11.28;91.11;99093.06;4985759;28;20034;-76
2022/11/09 06:50:44;;;;;;;2.25;1.17;;;;;;;11.35;90.75;99096.31;4985718;28;20034;-76
2022/11/09 06:53:12;;;;;;;1.75;1.65;;;;;;;11.30;90.36;99098.19;4985917;28;20046;-76
2022/11/09 06:55:38;;;;;;;0.50;0.50;;;;;;;11.28;90.30;99093.06;4985795;28;20018;-77
2022/11/09 06:58:09;;;;;;;0.50;0.50;;;;;;;11.22;90.67;99093.25;4985976;28;20027;-75
2022/11/09 07:00:34;;;;;;;0.43;0.43;;;;;;;11.18;90.41;99094.25;4986091;28;20022;-74
2022/11/09 07:02:59;;;;;;;0.40;0.40;;;;;;;11.15;90.48;99095.19;4986086;28;20023;-76
2022/11/09 07:05:25;;;;;;;0.40;0.40;;;;;;;11.12;90.60;99093.56;4985942;28;20109;-77
2022/11/09 07:07:50;;;;;;;0.40;0.40;;;;;;;11.06;90.64;99096.34;4986060;28;20018;-77
2022/11/09 07:10:15;;;;;;;0.40;0.40;;;;;;;11.02;90.94;99100.78;4969886;28;20041;-76
2022/11/09 07:12:41;;;;;;;0.63;0.63;;;;;;;11.00;91.03;99091.34;4972090;28;20105;-77
2022/11/09 07:15:07;;;;;;;0.40;0.40;;;;;;;10.97;91.50;99099.25;4989295;28;20101;-76
2022/11/09 07:17:33;;;;;;;1.38;1.30;;;;;;;11.00;91.59;99101.75;4989430;28;20111;-77
2022/11/09 07:19:59;;;;;;;0.85;0.85;;;;;;;11.03;91.69;99119.81;4989104;28;20051;-77
2022/11/09 07:22:26;;;;;;;0.40;0.40;;;;;;;11.07;92.17;99115.38;4989327;28;20030;-78
2022/11/09 07:24:52;;;;;;;0.40;0.40;;;;;;;11.10;91.85;99110.94;4989165;28;20026;-77
2022/11/09 07:27:17;;;;;;;0.40;0.40;;;;;;;11.19;91.91;99119.34;4989326;28;20293;-77
2022/11/09 07:29:42;;;;;;;0.47;0.47;;;;;;;11.20;91.61;99121.88;4988985;28;20046;-77
2022/11/09 07:32:08;;;;;;;2.42;2.25;;;;;;;11.23;91.81;99120.94;4989287;28;20463;-77
2022/11/09 07:34:33;;;;;;;0.40;0.40;;;;;;;11.21;91.73;99126.19;4989044;28;20023;-78
2022/11/09 07:36:59;;;;;;;0.40;0.40;;;;;;;11.25;92.29;99126.94;4989233;28;20023;-77
2022/11/09 07:39:24;;;;;;;0.50;0.50;;;;;;;11.44;92.26;99124.59;4988964;28;20025;-75
2022/11/09 07:41:49;;;;;;;0.50;0.50;;;;;;;11.60;91.54;99116.28;4989131;28;20034;-77
2022/11/09 07:44:17;;;;;;;0.40;0.40;;;;;;;11.80;91.17;99131.22;4971441;28;20094;-77
2022/11/09 07:46:47;;;;;;;0.40;0.40;;;;;;;12.02;90.94;99130.47;4989012;28;20023;-77
2022/11/09 07:49:14;;;;;;;0.50;0.50;;;;;;;12.08;90.10;99132.03;4988974;28;20133;-75
2022/11/09 07:51:40;;;;;;;0.40;0.40;;;;;;;11.97;88.97;99138.44;4988813;28;20110;-77
2022/11/09 07:54:05;;;;;;;0.40;0.40;;;;;;;11.84;88.98;99140.59;4988799;28;20030;-77
2022/11/09 07:56:31;;;;;;;0.40;0.40;;;;;;;11.80;89.24;99132.97;4989510;28;20034;-77
2022/11/09 07:58:56;;;;;;;0.40;0.40;;;;;;;11.71;89.39;99142.75;4988895;28;20434;-76
2022/11/09 08:01:21;;;;;;;0.40;0.40;;;;;;;11.75;89.50;99133.97;4988781;28;20022;-77
2022/11/09 08:03:47;;;;;;;0.40;0.40;;;;;;;11.73;89.49;99137.50;4988699;28;20027;-76
2022/11/09 08:06:12;;;;;;;0.40;0.40;;;;;;;11.74;90.02;99149.63;4988529;28;20027;-77
2022/11/09 08:08:38;;;;;;;2.38;2.17;;;;;;;11.75;89.70;99143.53;4988481;28;20027;-77
2022/11/09 08:11:03;;;;;;;0.40;0.40;;;;;;;11.77;89.89;99137.34;4988410;28;20029;-76
2022/11/09 08:13:29;;;;;;;0.40;0.40;;;;;;;11.81;89.31;99142.44;4988420;28;20053;-74
2022/11/09 08:15:54;;;;;;;0.43;0.43;;;;;;;11.77;89.74;99134.75;4988536;28;20026;-76
2022/11/09 08:18:21;;;;;;;0.50;0.50;;;;;;;11.77;89.90;99120.94;4988289;28;20031;-77
2022/11/09 08:20:48;;;;;;;0.40;0.40;;;;;;;11.80;89.78;99136.41;4988043;28;20039;-75
2022/11/09 08:23:15;;;;;;;0.47;0.47;;;;;;;11.75;89.78;99128.78;4988401;28;20109;-76
2022/11/09 08:25:41;;;;;;;0.63;0.63;;;;;;;11.66;89.65;99123.91;4988154;28;20027;-73
2022/11/09 08:28:07;;;;;;;0.75;0.75;;;;;;;11.64;89.32;99120.50;4988182;28;20110;-77
2022/11/09 08:30:33;;;;;;;2.60;2.15;;;;;;;11.66;89.29;99131.69;4987966;28;20022;-77
2022/11/09 08:33:00;;;;;;;0.40;0.40;;;;;;;11.62;89.47;99128.34;4988034;28;20045;-78
2022/11/09 08:35:26;;;;;;;0.50;0.50;;;;;;;11.61;89.83;99124.03;4988082;28;20034;-76
2022/11/09 08:37:53;;;;;;;2.75;2.47;;;;;;;11.67;89.56;99129.91;4987887;28;20026;-77
2022/11/09 08:40:23;;;;;;;0.40;0.40;;;;;;;11.70;89.64;99127.22;4987786;28;20038;-75
2022/11/09 08:42:49;;;;;;;0.50;0.50;;;;;;;11.72;89.56;99125.44;4987740;28;20490;-78
2022/11/09 08:45:15;;;;;;;0.30;0.30;;;;;;;11.72;89.43;99131.50;4987833;28;20034;-78
2022/11/09 08:47:41;;;;;;;0.50;0.50;;;;;;;11.80;89.86;99122.56;4987652;28;20029;-74
2022/11/09 08:50:09;;;;;;;0.40;0.40;;;;;;;11.81;89.45;99132.06;4987592;28;20054;-78
2022/11/09 08:52:34;;;;;;;0.40;0.40;;;;;;;11.80;89.74;99128.63;4987695;28;20027;-75
2022/11/09 08:55:00;;;;;;;0.40;0.40;;;;;;;11.80;89.42;99125.16;4987518;28;20042;-77
2022/11/09 08:57:26;;;;;;;0.40;0.40;;;;;;;11.78;88.85;99139.06;4987639;28;20109;-77
2022/11/09 08:59:51;;;;;;;0.40;0.40;;;;;;;11.81;88.77;99135.50;4987738;28;20115;-75
2022/11/09 09:02:16;;;;;;;0.60;0.60;;;;;;;11.79;88.91;99134.69;4987410;28;20034;-76
2022/11/09 09:04:42;;;;;;;0.63;0.63;;;;;;;11.76;88.79;99140.00;4987306;28;20033;-75
2022/11/09 09:07:08;;;;;;;0.40;0.40;;;;;;;11.75;88.64;99139.19;4987446;28;20054;-77
2022/11/09 09:09:34;;;;;;;0.50;0.50;;;;;;;11.72;88.72;99135.81;4987141;28;20030;-77
2022/11/09 09:12:00;;;;;;;0.43;0.43;;;;;;;11.75;88.72;99131.38;4987289;28;20085;-77
2022/11/09 09:14:25;;;;;;;0.40;0.40;;;;;;;11.80;88.41;99141.63;4987197;28;20034;-77
2022/11/09 09:16:51;;;;;;;2.78;1.35;;;;;;;11.80;88.36;99149.41;4987350;28;20037;-77
2022/11/09 09:19:16;;;;;;;0.40;0.40;;;;;;;11.82;88.13;99144.16;4987118;28;20026;-75
2022/11/09 09:21:41;;;;;;;0.50;0.50;;;;;;;11.79;87.94;99147.69;4987028;28;20054;-78
2022/11/09 09:24:07;;;;;;;0.40;0.40;;;;;;;11.82;88.17;99149.38;4986953;28;20029;-75
2022/11/09 09:26:32;;;;;;;0.43;0.43;;;;;;;11.89;88.56;99146.50;4986942;28;20037;-75
2022/11/09 09:28:58;;;;;;;0.40;0.40;;;;;;;12.04;88.72;99152.09;4986803;28;20132;-78
2022/11/09 09:31:24;;;;;;;0.57;0.57;;;;;;;12.17;87.91;99149.09;4986971;28;20026;-78
2022/11/09 09:33:49;;;;;;;1.42;1.40;;;;;;;12.17;86.47;99146.47;4986578;28;20391;-76
2022/11/09 09:36:23;;;;;;;0.85;0.85;;;;;;;12.18;86.68;99153.38;4987025;28;20026;-77
2022/11/09 09:38:53;;;;;;;0.40;0.40;;;;;;;12.18;86.20;99158.56;4986929;28;20505;-76
2022/11/09 09:41:34;;;;;;;0.88;0.88;;;;;;;12.10;85.90;99157.09;4986725;28;20503;-74
2022/11/09 09:44:07;;;;;;;0.40;0.40;;;;;;;12.03;86.09;99153.81;4986773;28;20027;-74
2022/11/09 09:46:48;;;;;;;0.40;0.40;;;;;;;12.04;86.06;99152.09;4986582;28;20026;-76
2022/11/09 09:49:28;;;;;;;0.50;0.50;;;;;;;12.03;86.09;99142.56;4986711;28;20026;-76
2022/11/09 09:52:00;;;;;;;0.40;0.40;;;;;;;11.98;86.50;99155.72;4986778;28;20026;-75
2022/11/09 09:54:40;;;;;;;0.43;0.43;;;;;;;12.04;86.47;99149.47;4986578;28;20030;-77
2022/11/09 09:57:18;;;;;;;0.40;0.40;;;;;;;12.13;86.62;99135.31;4986661;28;20041;-77
2022/11/09 09:59:48;;;;;;;0.40;0.40;;;;;;;12.19;86.53;99145.50;4986526;28;20141;-77
2022/11/09 10:02:16;;;;;;;0.30;0.30;;;;;;;12.21;86.59;99140.25;4986798;28;20023;-77
2022/11/09 10:04:41;;;;;;;0.40;0.40;;;;;;;12.19;86.12;99142.91;4986766;28;20078;-76
2022/11/09 10:07:35;;;;;;;0.30;0.30;;;;;;;12.24;86.12;99145.34;4986819;28;20034;-76
2022/11/09 10:10:38;;;;;;;0.50;0.50;;;;;;;12.29;85.82;99151.25;4986512;28;20026;-77
2022/11/09 10:13:15;;;;;;;0.40;0.40;;;;;;;12.29;85.79;99146.03;4986750;28;20114;-75
2022/11/09 10:15:54;;;;;;;0.40;0.40;;;;;;;12.27;85.38;99151.28;4987468;28;20106;-76
2022/11/09 10:19:06;;;;;;;0.40;0.40;;;;;;;12.33;86.19;99155.41;4987668;28;20501;-78
2022/11/09 10:21:57;;;;;;;0.50;0.50;;;;;;;12.45;86.12;99158.50;4926925;29;20076;-77
2022/11/09 10:24:34;;;;;;;0.40;0.40;;;;;;;12.52;86.64;99144.34;4926399;29;20075;-76
2022/11/09 10:27:02;;;;;;;0.50;0.50;;;;;;;12.52;85.75;99157.38;4926679;29;20040;-76
2022/11/09 10:29:38;;;;;;;0.80;0.80;;;;;;;12.56;86.16;99156.34;4926387;29;20038;-77
2022/11/09 10:32:13;;;;;;;0.40;0.40;;;;;;;12.47;85.50;99151.47;4926505;29;20040;-73
2022/11/09 10:34:54;;;;;;;0.40;0.40;;;;;;;12.44;85.21;99152.47;4926689;29;20097;-76
2022/11/09 10:37:27;;;;;;;0.82;0.82;;;;;;;12.35;84.92;99169.22;4926551;29;20107;-77
2022/11/09 10:40:03;;;;;;;0.55;0.55;;;;;;;12.27;85.43;99153.91;4926343;29;20040;-76
2022/11/09 10:42:29;;;;;;;0.40;0.40;;;;;;;12.22;85.54;99168.00;4926500;29;20120;-77
2022/11/09 10:44:54;;;;;;;0.40;0.40;;;;;;;12.10;86.27;99151.03;4927402;29;20432;-75
2022/11/09 10:47:21;;;;;;;0.40;0.40;;;;;;;12.06;86.92;99157.22;4929937;29;20035;-76
2022/11/09 10:50:16;;;;;;;0.40;0.40;;;;;;;12.03;87.02;99155.56;4929765;29;20032;-76
2022/11/09 10:52:41;;;;;;;0.40;0.40;;;;;;;12.02;87.62;99156.47;4929933;29;20048;-75
2022/11/09 10:55:27;;;;;;;0.40;0.40;;;;;;;12.03;88.20;99159.03;4929791;29;20220;-77
2022/11/09 10:58:00;;;;;;;0.40;0.40;;;;;;;12.01;88.04;99155.63;4946017;29;20123;-76
2022/11/09 11:00:26;;;;;;;0.40;0.40;;;;;;;11.96;88.38;99156.69;4970259;29;20027;-77
2022/11/09 11:02:53;;;;;;;0.40;0.40;;;;;;;11.96;88.72;99157.56;4970230;29;20384;-77
2022/11/09 11:05:18;;;;;;;0.40;0.40;;;;;;;11.95;88.55;99148.03;4970189;29;20034;-77
2022/11/09 11:07:45;;;;;;;0.40;0.40;;;;;;;11.92;88.63;99148.13;4970386;29;20023;-75
2022/11/09 11:10:16;;;;;;;0.40;0.40;;;;;;;11.88;89.18;99159.56;4969959;29;20096;-76
2022/11/09 11:12:43;;;;;;;0.40;0.40;;;;;;;11.88;89.19;99160.41;4970182;29;20083;-77
2022/11/09 11:15:31;;;;;;;0.40;0.40;;;;;;;11.90;89.27;99156.00;4970121;29;20035;-74
2022/11/09 11:18:11;;;;;;;0.60;0.60;;;;;;;11.87;89.44;99150.03;4969992;29;20023;-76
2022/11/09 11:20:37;;;;;;;0.40;0.40;;;;;;;11.88;89.73;99150.03;4978699;28;20070;-76
2022/11/09 11:23:24;;;;;;;0.40;0.40;;;;;;;11.93;90.05;99151.59;4989324;28;20038;-78
2022/11/09 11:25:52;;;;;;;0.40;0.40;;;;;;;11.92;90.21;99152.50;4989210;28;20037;-76
2022/11/09 11:28:25;;;;;;;0.40;0.40;;;;;;;11.91;90.16;99133.44;4989292;28;20018;-76
2022/11/09 11:30:51;;;;;;;0.40;0.40;;;;;;;11.95;90.37;99142.00;4989100;28;20038;-74
2022/11/09 11:33:20;;;;;;;0.40;0.40;;;;;;;11.88;90.31;99141.34;4989216;28;20023;-77
2022/11/09 11:35:55;;;;;;;0.40;0.40;;;;;;;11.90;90.34;99145.59;4989072;28;20023;-77
2022/11/09 11:38:33;;;;;;;0.40;0.40;;;;;;;11.96;90.37;99144.56;4989049;28;20027;-76
2022/11/09 11:41:08;;;;;;;0.40;0.40;;;;;;;11.96;90.46;99151.50;4988879;28;20023;-77